createdAt,value
2019-05-18T00:00:51.747Z,96614.05
2019-05-18T00:03:24.060Z,96610.06
2019-05-18T00:05:56.223Z,96606.50
2019-05-18T00:08:27.935Z,96594.79
2019-05-18T00:11:00.595Z,96593.80
2019-05-18T00:13:34.889Z,96585.05
2019-05-18T00:16:06.705Z,96584.70
2019-05-18T00:18:38.382Z,96583.91
2019-05-18T00:21:10.051Z,96572.20
2019-05-18T00:23:41.705Z,96564.70
2019-05-18T00:26:14.019Z,96563.22
2019-05-18T00:28:46.527Z,96555.70
2019-05-18T00:31:18.187Z,96555.09
2019-05-18T00:33:52.181Z,96542.30
2019-05-18T00:36:23.963Z,96536.23
2019-05-18T00:38:56.696Z,96526.13
2019-05-18T00:41:28.800Z,96518.45
2019-05-18T00:44:00.376Z,96516.99
2019-05-18T00:46:32.245Z,96519.12
2019-05-18T00:49:03.900Z,96509.83
2019-05-18T00:51:36.923Z,96513.42
2019-05-18T00:54:08.474Z,96510.13
2019-05-18T00:56:40.835Z,96499.72
2019-05-18T00:59:15.955Z,96507.04
2019-05-18T01:01:45.758Z,96504.33
2019-05-18T01:04:17.426Z,96511.13
2019-05-18T01:06:49.192Z,96518.48
2019-05-18T01:09:20.997Z,96521.25
2019-05-18T01:11:56.956Z,96533.61
2019-05-18T01:14:29.026Z,96548.22
2019-05-18T01:17:00.633Z,96551.14
2019-05-18T01:19:33.026Z,96563.70
2019-05-18T01:22:05.021Z,96572.27
2019-05-18T01:24:37.651Z,96572.27
2019-05-18T01:27:09.773Z,96576.07
2019-05-18T01:29:43.724Z,96573.95
2019-05-18T01:32:15.615Z,96579.59
2019-05-18T01:34:49.010Z,96574.61
2019-05-18T01:37:21.098Z,96579.18
2019-05-18T01:39:52.969Z,96584.99
2019-05-18T01:42:25.268Z,96584.99
2019-05-18T01:44:57.047Z,96583.53
2019-05-18T01:47:29.528Z,96584.99
2019-05-18T01:50:01.270Z,96591.17
2019-05-18T01:52:33.751Z,96597.37
2019-05-18T01:55:06.809Z,96594.39
2019-05-18T01:57:38.723Z,96595.02
2019-05-18T02:00:11.271Z,96593.72
2019-05-18T02:02:43.069Z,96600.89
2019-05-18T02:05:15.552Z,96609.08
2019-05-18T02:07:47.464Z,96606.50
2019-05-18T02:10:19.415Z,96601.01
2019-05-18T02:12:51.016Z,96600.38
2019-05-18T02:15:23.626Z,96595.19
2019-05-18T02:17:56.450Z,96598.75
2019-05-18T02:20:28.709Z,96591.95
2019-05-18T02:23:00.612Z,96595.95
2019-05-18T02:25:33.794Z,96599.39
2019-05-18T02:28:06.952Z,96595.83
2019-05-18T02:30:40.236Z,96591.95
2019-05-18T02:33:12.338Z,96596.50
2019-05-18T02:35:44.941Z,96592.88
2019-05-18T02:38:17.297Z,96588.66
2019-05-18T02:40:49.843Z,96588.34
2019-05-18T02:43:22.243Z,96588.79
2019-05-18T02:45:53.933Z,96593.52
2019-05-18T02:48:25.778Z,96603.39
2019-05-18T02:51:01.276Z,96607.30
2019-05-18T02:53:34.986Z,96607.40
2019-05-18T02:56:06.824Z,96607.75
2019-05-18T02:58:39.921Z,96618.34
2019-05-18T03:01:11.765Z,96620.12
2019-05-18T03:03:46.317Z,96618.34
2019-05-18T03:06:22.381Z,96618.44
2019-05-18T03:08:55.042Z,96610.34
2019-05-18T03:11:28.003Z,96616.22
2019-05-18T03:14:08.209Z,96615.39
2019-05-18T03:16:44.038Z,96614.34
2019-05-18T03:19:17.124Z,96622.66
2019-05-18T03:22:02.512Z,96618.70
2019-05-18T03:24:34.115Z,96617.11
2019-05-18T03:27:11.283Z,96617.77
2019-05-18T03:29:45.818Z,96626.59
2019-05-18T03:32:20.994Z,96620.59
2019-05-18T03:34:53.440Z,96613.91
2019-05-18T03:37:25.946Z,96616.88
2019-05-18T03:39:57.892Z,96625.20
2019-05-18T03:42:29.481Z,96620.12
2019-05-18T03:45:01.274Z,96624.37
2019-05-18T03:47:34.756Z,96615.55
2019-05-18T03:50:11.092Z,96628.24
2019-05-18T03:52:44.186Z,96627.77
2019-05-18T03:55:15.888Z,96626.30
2019-05-18T03:57:48.669Z,96625.16
2019-05-18T04:00:24.221Z,96633.67
2019-05-18T04:02:58.835Z,96627.70
2019-05-18T04:05:31.986Z,96624.45
2019-05-18T04:08:04.166Z,96625.16
2019-05-18T04:10:37.276Z,96613.62
2019-05-18T04:13:09.868Z,96618.03
2019-05-18T04:15:41.860Z,96616.12
2019-05-18T04:18:13.903Z,96603.78
2019-05-18T04:20:45.768Z,96612.92
2019-05-18T04:23:19.938Z,96610.69
2019-05-18T04:25:51.885Z,96607.42
2019-05-18T04:28:24.171Z,96607.42
2019-05-18T04:30:57.953Z,96610.00
2019-05-18T04:33:30.706Z,96614.59
2019-05-18T04:36:04.992Z,96615.75
2019-05-18T04:38:41.371Z,96615.35
2019-05-18T04:41:18.209Z,96612.44
2019-05-18T04:43:50.705Z,96616.86
2019-05-18T04:46:22.639Z,96611.19
2019-05-18T04:48:59.416Z,96609.22
2019-05-18T04:51:41.418Z,96603.70
2019-05-18T04:54:16.909Z,96603.55
2019-05-18T04:56:54.417Z,96599.00
2019-05-18T04:59:33.360Z,96601.80
2019-05-18T05:02:10.150Z,96592.70
2019-05-18T05:04:43.585Z,96591.09
2019-05-18T05:07:18.499Z,96593.73
2019-05-18T05:09:53.824Z,96585.94
2019-05-18T05:12:36.089Z,96589.55
2019-05-18T05:15:13.391Z,96585.69
2019-05-18T05:17:52.125Z,96590.48
2019-05-18T05:20:24.730Z,96595.25
2019-05-18T05:23:05.235Z,96589.39
2019-05-18T05:25:38.177Z,96598.36
2019-05-18T05:28:16.249Z,96596.55
2019-05-18T05:30:55.488Z,96604.86
2019-05-18T05:33:40.923Z,96604.84
2019-05-18T05:36:17.219Z,96603.67
2019-05-18T05:38:57.678Z,96593.87
2019-05-18T05:41:29.580Z,96605.37
2019-05-18T05:44:01.221Z,96595.75
2019-05-18T05:46:37.238Z,96593.73
2019-05-18T05:49:08.209Z,96585.69
2019-05-18T05:51:41.275Z,96586.95
2019-05-18T05:54:14.749Z,96590.64
2019-05-18T05:56:50.048Z,96593.21
2019-05-18T05:59:22.004Z,96596.78
2019-05-18T06:01:54.355Z,96586.31
2019-05-18T06:04:27.642Z,96596.59
2019-05-18T06:07:00.719Z,96589.35
2019-05-18T06:09:34.576Z,96598.75
2019-05-18T06:12:16.099Z,96598.31
2019-05-18T06:14:48.172Z,96594.09
2019-05-18T06:17:28.918Z,96604.45
2019-05-18T06:20:02.741Z,96597.80
2019-05-18T06:22:35.282Z,96605.05
2019-05-18T06:25:09.931Z,96621.95
2019-05-18T06:27:43.752Z,96624.52
2019-05-18T06:30:18.805Z,96625.59
2019-05-18T06:32:50.993Z,96633.60
2019-05-18T06:35:26.859Z,96639.44
2019-05-18T06:37:59.713Z,96637.89
2019-05-18T06:40:34.303Z,96634.45
2019-05-18T06:43:07.837Z,96630.06
2019-05-18T06:45:43.265Z,96645.45
2019-05-18T06:48:17.151Z,96634.05
2019-05-18T06:51:04.935Z,96645.83
2019-05-18T06:53:28.695Z,96640.79
2019-05-18T06:56:03.517Z,96638.71
2019-05-18T06:58:41.371Z,96637.52
2019-05-18T07:01:16.185Z,96646.59
2019-05-18T07:03:52.215Z,96630.83
2019-05-18T07:06:27.817Z,96642.47
2019-05-18T07:09:12.538Z,96637.28
2019-05-18T07:11:39.342Z,96641.98
2019-05-18T07:14:24.979Z,96640.02
2019-05-18T07:16:45.999Z,96644.06
2019-05-18T07:19:17.915Z,96642.17
2019-05-18T07:21:53.374Z,96651.45
2019-05-18T07:24:30.284Z,96645.02
2019-05-18T07:27:10.454Z,96650.34
2019-05-18T07:29:42.718Z,96659.69
2019-05-18T07:32:23.270Z,96656.89
2019-05-18T07:34:56.183Z,96659.19
2019-05-18T07:37:34.812Z,96661.13
2019-05-18T07:40:08.149Z,96662.05
2019-05-18T07:42:42.232Z,96670.81
2019-05-18T07:45:20.852Z,96668.41
2019-05-18T07:48:00.971Z,96662.06
2019-05-18T07:50:36.310Z,96669.88
2019-05-18T07:53:08.350Z,96668.00
2019-05-18T07:55:59.756Z,96660.06
2019-05-18T07:58:31.475Z,96664.96
2019-05-18T08:01:03.344Z,96660.80
2019-05-18T08:03:35.158Z,96656.02
2019-05-18T08:06:08.150Z,96664.83
2019-05-18T08:08:40.039Z,96651.44
2019-05-18T08:11:11.924Z,96656.03
2019-05-18T08:13:46.344Z,96646.61
2019-05-18T08:16:19.002Z,96654.45
2019-05-18T08:18:51.457Z,96653.33
2019-05-18T08:21:24.333Z,96651.84
2019-05-18T08:23:57.234Z,96648.46
2019-05-18T08:26:35.721Z,96654.59
2019-05-18T08:29:17.408Z,96657.77
2019-05-18T08:32:00.676Z,96659.23
2019-05-18T08:34:38.740Z,96658.57
2019-05-18T08:37:13.533Z,96660.66
2019-05-18T08:39:48.753Z,96659.53
2019-05-18T08:42:27.630Z,96654.06
2019-05-18T08:45:10.807Z,96660.63
2019-05-18T08:47:51.575Z,96654.44
2019-05-18T08:50:31.509Z,96664.16
2019-05-18T08:53:14.439Z,96659.29
2019-05-18T08:55:54.038Z,96659.59
2019-05-18T08:58:34.205Z,96664.28
2019-05-18T09:01:10.715Z,96658.45
2019-05-18T09:03:42.565Z,96664.33
2019-05-18T09:06:14.913Z,96653.86
2019-05-18T09:08:54.555Z,96657.44
2019-05-18T09:11:37.976Z,96658.59
2019-05-18T09:14:09.909Z,96651.45
2019-05-18T09:16:41.654Z,96656.50
2019-05-18T09:19:13.584Z,96653.64
2019-05-18T09:21:45.618Z,96650.09
2019-05-18T09:24:17.401Z,96638.95
2019-05-18T09:26:49.283Z,96643.33
2019-05-18T09:29:21.571Z,96642.47
2019-05-18T09:31:53.582Z,96652.03
2019-05-18T09:34:25.421Z,96652.03
2019-05-18T09:36:58.277Z,96652.29
2019-05-18T09:39:29.991Z,96656.12
2019-05-18T09:42:07.356Z,96647.89
2019-05-18T09:44:43.027Z,96649.63
2019-05-18T09:47:24.533Z,96654.90
2019-05-18T09:50:04.624Z,96657.20
2019-05-18T09:52:49.962Z,96650.06
2019-05-18T09:55:28.738Z,96650.09
2019-05-18T09:58:09.034Z,96651.73
2019-05-18T10:00:47.932Z,96638.67
2019-05-18T10:03:30.804Z,96647.55
2019-05-18T10:06:03.754Z,96644.17
2019-05-18T10:08:42.157Z,96648.93
2019-05-18T10:11:14.818Z,96656.22
2019-05-18T10:13:46.812Z,96653.44
2019-05-18T10:16:19.791Z,96655.98
2019-05-18T10:19:03.812Z,96655.17
2019-05-18T10:21:34.537Z,96660.89
2019-05-18T10:24:06.459Z,96666.73
2019-05-18T10:26:38.286Z,96659.25
2019-05-18T10:29:22.570Z,96655.55
2019-05-18T10:32:07.559Z,96660.85
2019-05-18T10:34:43.643Z,96659.59
2019-05-18T10:37:23.637Z,96665.48
2019-05-18T10:40:02.694Z,96665.66
2019-05-18T10:42:42.754Z,96660.52
2019-05-18T10:45:24.052Z,96660.23
2019-05-18T10:48:07.318Z,96659.19
2019-05-18T10:50:49.651Z,96653.88
2019-05-18T10:53:28.748Z,96660.39
2019-05-18T10:55:56.822Z,96659.17
2019-05-18T10:58:37.513Z,96660.84
2019-05-18T11:01:19.354Z,96667.77
2019-05-18T11:03:52.078Z,96662.11
2019-05-18T11:06:24.075Z,96665.39
2019-05-18T11:09:00.220Z,96669.98
2019-05-18T11:11:38.257Z,96674.52
2019-05-18T11:14:18.608Z,96677.75
2019-05-18T11:17:04.141Z,96675.98
2019-05-18T11:19:48.372Z,96678.87
2019-05-18T11:22:25.051Z,96683.21
2019-05-18T11:24:58.951Z,96678.97
2019-05-18T11:27:31.989Z,96687.42
2019-05-18T11:30:03.944Z,96678.42
2019-05-18T11:32:35.768Z,96679.68
2019-05-18T11:35:08.219Z,96680.78
2019-05-18T11:37:42.383Z,96684.55
2019-05-18T11:40:15.076Z,96678.64
2019-05-18T11:42:48.510Z,96681.29
2019-05-18T11:45:22.456Z,96685.44
2019-05-18T11:47:54.953Z,96684.71
2019-05-18T11:50:28.173Z,96684.59
2019-05-18T11:53:01.064Z,96679.16
2019-05-18T11:55:33.181Z,96673.17
2019-05-18T11:58:06.236Z,96670.94
2019-05-18T12:00:39.512Z,96678.81
2019-05-18T12:03:11.777Z,96675.47
2019-05-18T12:05:45.436Z,96665.40
2019-05-18T12:08:18.667Z,96666.47
2019-05-18T12:10:56.175Z,96664.25
2019-05-18T12:13:27.916Z,96666.73
2019-05-18T12:16:00.350Z,96666.52
2019-05-18T12:18:33.037Z,96673.34
2019-05-18T12:21:05.736Z,96676.05
2019-05-18T12:23:38.352Z,96668.06
2019-05-18T12:26:11.088Z,96668.20
2019-05-18T12:28:42.765Z,96670.05
2019-05-18T12:31:15.176Z,96664.44
2019-05-18T12:33:47.129Z,96662.28
2019-05-18T12:36:19.933Z,96653.86
2019-05-18T12:38:52.854Z,96660.12
2019-05-18T12:41:31.683Z,96663.67
2019-05-18T12:44:04.003Z,96653.20
2019-05-18T12:46:36.178Z,96656.63
2019-05-18T12:49:08.760Z,96648.42
2019-05-18T12:51:42.829Z,96658.36
2019-05-18T12:54:26.955Z,96652.34
2019-05-18T12:56:49.403Z,96650.72
2019-05-18T12:59:22.345Z,96643.27
2019-05-18T13:01:54.566Z,96644.80
2019-05-18T13:04:26.777Z,96651.71
2019-05-18T13:07:00.531Z,96651.74
2019-05-18T13:09:33.569Z,96653.21
2019-05-18T13:12:16.406Z,96652.03
2019-05-18T13:14:53.076Z,96649.27
2019-05-18T13:17:30.153Z,96653.89
2019-05-18T13:20:08.492Z,96651.73
2019-05-18T13:22:50.441Z,96640.80
2019-05-18T13:25:30.998Z,96636.03
2019-05-18T13:28:15.756Z,96646.16
2019-05-18T13:30:55.926Z,96640.47
2019-05-18T13:33:36.788Z,96641.14
2019-05-18T13:36:19.577Z,96632.14
2019-05-18T13:39:01.511Z,96645.58
2019-05-18T13:41:39.880Z,96650.17
2019-05-18T13:44:20.383Z,96652.25
2019-05-18T13:46:54.167Z,96656.63
2019-05-18T13:49:26.086Z,96654.09
2019-05-18T13:52:03.457Z,96644.95
2019-05-18T13:54:36.472Z,96641.91
2019-05-18T13:57:15.553Z,96643.52
2019-05-18T13:59:51.585Z,96640.78
2019-05-18T14:02:23.886Z,96641.51
2019-05-18T14:04:55.800Z,96643.70
2019-05-18T14:07:33.333Z,96643.20
2019-05-18T14:10:08.418Z,96638.64
2019-05-18T14:12:40.681Z,96643.70
2019-05-18T14:15:16.207Z,96650.05
2019-05-18T14:17:49.480Z,96652.09
2019-05-18T14:20:21.933Z,96649.82
2019-05-18T14:22:57.181Z,96649.31
2019-05-18T14:25:30.977Z,96666.20
2019-05-18T14:28:03.353Z,96668.61
2019-05-18T14:30:35.322Z,96659.48
2019-05-18T14:33:12.227Z,96669.43
2019-05-18T14:35:44.849Z,96673.99
2019-05-18T14:38:17.252Z,96671.94
2019-05-18T14:40:49.337Z,96671.43
2019-05-18T14:43:22.227Z,96671.43
2019-05-18T14:45:55.604Z,96677.86
2019-05-18T14:48:29.847Z,96669.84
2019-05-18T14:51:02.209Z,96671.25
2019-05-18T14:53:34.339Z,96672.40
2019-05-18T14:56:08.022Z,96675.81
2019-05-18T14:58:40.272Z,96674.45
2019-05-18T15:01:16.464Z,96665.84
2019-05-18T15:03:49.011Z,96670.34
2019-05-18T15:06:20.902Z,96664.47
2019-05-18T15:08:52.762Z,96666.68
2019-05-18T15:11:25.244Z,96666.52
2019-05-18T15:13:57.832Z,96658.94
2019-05-18T15:16:29.800Z,96660.80
2019-05-18T15:19:02.547Z,96652.66
2019-05-18T15:21:34.799Z,96655.33
2019-05-18T15:24:08.836Z,96658.94
2019-05-18T15:26:41.284Z,96671.30
2019-05-18T15:29:18.573Z,96664.53
2019-05-18T15:31:53.699Z,96669.11
2019-05-18T15:34:26.739Z,96667.20
2019-05-18T15:36:58.942Z,96664.81
2019-05-18T15:39:30.793Z,96662.20
2019-05-18T15:42:08.830Z,96671.59
2019-05-18T15:44:51.569Z,96675.77
2019-05-18T15:47:40.447Z,96670.70
2019-05-18T15:50:25.255Z,96675.96
2019-05-18T15:53:09.588Z,96674.83
2019-05-18T15:56:04.749Z,96672.19
2019-05-18T15:58:46.632Z,96677.56
2019-05-18T16:01:29.967Z,96676.37
2019-05-18T16:04:10.334Z,96677.11
2019-05-18T16:06:56.297Z,96672.09
2019-05-18T16:09:45.336Z,96678.94
2019-05-18T16:12:24.555Z,96677.50
2019-05-18T16:15:11.442Z,96682.62
2019-05-18T16:18:00.157Z,96683.36
2019-05-18T16:20:40.139Z,96687.50
2019-05-18T16:23:22.894Z,96680.41
2019-05-18T16:26:20.802Z,96687.55
2019-05-18T16:28:52.597Z,96692.12
2019-05-18T16:31:34.994Z,96696.19
2019-05-18T16:34:14.954Z,96696.91
2019-05-18T16:37:00.715Z,96688.77
2019-05-18T16:39:38.731Z,96694.34
2019-05-18T16:42:24.104Z,96689.38
2019-05-18T16:45:00.970Z,96694.05
2019-05-18T16:47:32.903Z,96690.41
2019-05-18T16:50:04.835Z,96692.93
2019-05-18T16:52:46.419Z,96689.84
2019-05-18T16:55:29.951Z,96686.58
2019-05-18T16:58:15.454Z,96690.00
2019-05-18T17:01:08.420Z,96684.20
2019-05-18T17:03:41.732Z,96692.11
2019-05-18T17:06:26.561Z,96694.03
2019-05-18T17:09:11.077Z,96691.67
2019-05-18T17:11:58.129Z,96697.01
2019-05-18T17:14:41.800Z,96694.46
2019-05-18T17:17:25.086Z,96694.84
2019-05-18T17:19:57.556Z,96692.20
2019-05-18T17:22:29.585Z,96690.22
2019-05-18T17:25:01.501Z,96694.55
2019-05-18T17:27:36.242Z,96699.55
2019-05-18T17:30:08.840Z,96692.06
2019-05-18T17:32:40.456Z,96683.97
2019-05-18T17:35:21.623Z,96685.07
2019-05-18T17:37:55.026Z,96684.63
2019-05-18T17:40:26.855Z,96689.63
2019-05-18T17:43:00.207Z,96684.74
2019-05-18T17:45:32.217Z,96694.53
2019-05-18T17:48:04.374Z,96683.78
2019-05-18T17:50:36.041Z,96689.56
2019-05-18T17:53:08.021Z,96687.00
2019-05-18T17:55:39.630Z,96688.13
2019-05-18T17:58:11.241Z,96690.97
2019-05-18T18:00:42.962Z,96690.72
2019-05-18T18:03:15.247Z,96694.73
2019-05-18T18:05:47.017Z,96698.91
2019-05-18T18:08:18.788Z,96698.22
2019-05-18T18:10:50.646Z,96695.63
2019-05-18T18:13:25.809Z,96690.43
2019-05-18T18:15:58.732Z,96693.81
2019-05-18T18:18:30.966Z,96690.06
2019-05-18T18:21:03.059Z,96691.99
2019-05-18T18:23:35.183Z,96690.84
2019-05-18T18:26:07.299Z,96692.84
2019-05-18T18:28:39.213Z,96699.17
2019-05-18T18:31:11.339Z,96687.02
2019-05-18T18:33:43.193Z,96689.56
2019-05-18T18:36:15.049Z,96687.05
2019-05-18T18:38:46.791Z,96691.19
2019-05-18T18:41:18.434Z,96692.91
2019-05-18T18:43:50.076Z,96684.65
2019-05-18T18:46:22.309Z,96687.49
2019-05-18T18:48:54.414Z,96685.25
2019-05-18T18:51:26.393Z,96682.62
2019-05-18T18:53:58.346Z,96682.34
2019-05-18T18:56:29.983Z,96684.34
2019-05-18T18:59:01.809Z,96689.10
2019-05-18T19:01:33.477Z,96689.81
2019-05-18T19:04:05.379Z,96687.67
2019-05-18T19:06:37.305Z,96693.62
2019-05-18T19:09:09.467Z,96689.19
2019-05-18T19:11:41.247Z,96696.34
2019-05-18T19:14:13.109Z,96693.17
2019-05-18T19:16:44.648Z,96697.89
2019-05-18T19:19:17.005Z,96704.00
2019-05-18T19:21:49.564Z,96696.82
2019-05-18T19:24:21.388Z,96699.19
2019-05-18T19:26:53.862Z,96701.48
2019-05-18T19:29:25.706Z,96710.30
2019-05-18T19:32:00.317Z,96707.72
2019-05-18T19:34:32.752Z,96704.35
2019-05-18T19:37:04.699Z,96716.16
2019-05-18T19:39:36.642Z,96711.06
2019-05-18T19:42:09.498Z,96717.31
2019-05-18T19:44:42.639Z,96716.34
2019-05-18T19:47:15.037Z,96711.29
2019-05-18T19:49:46.924Z,96717.51
2019-05-18T19:52:18.751Z,96726.76
2019-05-18T19:54:50.772Z,96722.38
2019-05-18T19:57:22.650Z,96724.14
2019-05-18T19:59:54.545Z,96720.58
2019-05-18T20:02:26.167Z,96724.84
2019-05-18T20:05:07.167Z,96723.69
2019-05-18T20:07:33.869Z,96725.82
2019-05-18T20:10:05.969Z,96731.06
2019-05-18T20:12:37.906Z,96724.50
2019-05-18T20:15:11.038Z,96725.48
2019-05-18T20:17:42.788Z,96731.33
2019-05-18T20:20:14.920Z,96738.41
2019-05-18T20:22:46.719Z,96731.85
2019-05-18T20:25:20.105Z,96730.66
2019-05-18T20:27:52.050Z,96728.93
2019-05-18T20:30:24.213Z,96731.06
2019-05-18T20:32:56.076Z,96723.54
2019-05-18T20:35:28.514Z,96726.98
2019-05-18T20:38:01.422Z,96721.66
2019-05-18T20:40:33.342Z,96725.25
2019-05-18T20:43:05.459Z,96722.66
2019-05-18T20:45:43.612Z,96723.19
2019-05-18T20:48:16.980Z,96728.58
2019-05-18T20:50:51.642Z,96724.04
2019-05-18T20:53:23.440Z,96724.04
2019-05-18T20:55:55.439Z,96726.72
2019-05-18T20:58:39.302Z,96716.94
2019-05-18T21:01:02.881Z,96715.34
2019-05-18T21:03:35.664Z,96713.83
2019-05-18T21:06:07.421Z,96709.72
2019-05-18T21:08:39.366Z,96714.98
2019-05-18T21:11:11.318Z,96708.56
2019-05-18T21:13:43.149Z,96710.57
2019-05-18T21:16:16.128Z,96709.92
2019-05-18T21:18:47.688Z,96717.27
2019-05-18T21:21:24.605Z,96725.77
2019-05-18T21:23:52.466Z,96726.95
2019-05-18T21:26:24.073Z,96726.31
2019-05-18T21:29:00.544Z,96733.70
2019-05-18T21:31:29.110Z,96730.47
2019-05-18T21:34:00.736Z,96721.51
2019-05-18T21:36:32.644Z,96724.81
2019-05-18T21:39:04.715Z,96718.75
2019-05-18T21:41:36.360Z,96721.88
2019-05-18T21:44:09.028Z,96720.44
2019-05-18T21:46:40.720Z,96714.85
2019-05-18T21:49:12.356Z,96714.03
2019-05-18T21:51:44.063Z,96713.59
2019-05-18T21:54:15.734Z,96708.48
2019-05-18T21:56:47.418Z,96709.28
2019-05-18T21:59:19.114Z,96704.73
2019-05-18T22:01:50.941Z,96697.52
2019-05-18T22:04:23.092Z,96695.55
2019-05-18T22:06:54.856Z,96700.48
2019-05-18T22:09:26.739Z,96688.38
2019-05-18T22:11:58.549Z,96693.14
2019-05-18T22:14:30.423Z,96691.98
2019-05-18T22:17:02.234Z,96684.16
2019-05-18T22:19:33.939Z,96688.59
2019-05-18T22:22:08.730Z,96683.02
2019-05-18T22:24:40.319Z,96678.91
2019-05-18T22:27:12.488Z,96674.55
2019-05-18T22:29:44.363Z,96669.63
2019-05-18T22:32:16.384Z,96672.77
2019-05-18T22:34:48.228Z,96670.95
2019-05-18T22:37:20.364Z,96671.30
2019-05-18T22:39:52.210Z,96667.99
2019-05-18T22:42:24.485Z,96675.22
2019-05-18T22:44:56.561Z,96665.10
2019-05-18T22:47:29.078Z,96669.70
2019-05-18T22:50:01.946Z,96667.47
2019-05-18T22:52:34.303Z,96668.13
2019-05-18T22:55:06.312Z,96668.77
2019-05-18T22:57:38.091Z,96665.64
2019-05-18T23:00:10.408Z,96672.50
2019-05-18T23:02:43.553Z,96665.69
2019-05-18T23:05:16.224Z,96670.91
2019-05-18T23:07:48.095Z,96672.36
2019-05-18T23:10:20.208Z,96673.68
2019-05-18T23:12:51.959Z,96672.86
2019-05-18T23:15:23.868Z,96671.86
2019-05-18T23:17:55.714Z,96675.81
2019-05-18T23:20:27.581Z,96677.45
2019-05-18T23:23:00.013Z,96677.16
2019-05-18T23:25:31.729Z,96676.81
2019-05-18T23:28:04.069Z,96669.17
2019-05-18T23:30:35.834Z,96665.74
2019-05-18T23:33:07.623Z,96664.27
2019-05-18T23:35:39.471Z,96664.77
2019-05-18T23:38:11.492Z,96668.70
2019-05-18T23:40:45.765Z,96664.45
2019-05-18T23:43:18.063Z,96664.47
2019-05-18T23:45:50.353Z,96664.46
2019-05-18T23:48:24.101Z,96660.53
2019-05-18T23:50:56.075Z,96658.89
2019-05-18T23:53:27.988Z,96657.27
2019-05-18T23:56:00.406Z,96660.53
2019-05-18T23:58:33.105Z,96665.60
